createdAt,value
2017-06-24T00:00:48.600Z,18.92
2017-06-24T00:01:48.275Z,18.97
2017-06-24T00:02:48.268Z,18.9
2017-06-24T00:03:48.567Z,18.95
2017-06-24T00:04:48.244Z,18.83
2017-06-24T00:05:48.248Z,18.98
2017-06-24T00:06:48.229Z,19.02
2017-06-24T00:07:48.530Z,19.02
2017-06-24T00:08:47.896Z,19.02
2017-06-24T00:09:48.506Z,19.01
2017-06-24T00:10:48.189Z,19.06
2017-06-24T00:11:48.177Z,19.06
2017-06-24T00:12:48.171Z,19.02
2017-06-24T00:13:48.471Z,18.99
2017-06-24T00:14:48.462Z,19.06
2017-06-24T00:15:48.145Z,18.99
2017-06-24T00:16:48.440Z,19.1
2017-06-24T00:17:48.118Z,19.1
2017-06-24T00:18:48.439Z,19.14
2017-06-24T00:19:48.300Z,19.15
2017-06-24T00:20:48.087Z,19.15
2017-06-24T00:21:47.771Z,19.17
2017-06-24T00:22:48.383Z,19.1
2017-06-24T00:23:48.062Z,19.14
2017-06-24T00:24:48.058Z,19.13
2017-06-24T00:25:48.354Z,19.1
2017-06-24T00:26:48.345Z,19.08
2017-06-24T00:27:48.022Z,19.05
2017-06-24T00:28:48.016Z,19.05
2017-06-24T00:29:48.322Z,18.99
2017-06-24T00:30:48.307Z,18.95
2017-06-24T00:31:47.672Z,18.94
2017-06-24T00:32:48.283Z,18.86
2017-06-24T00:33:48.273Z,18.98
2017-06-24T00:34:47.953Z,18.99
2017-06-24T00:35:47.940Z,18.83
2017-06-24T00:36:48.249Z,18.87
2017-06-24T00:37:48.249Z,18.86
2017-06-24T00:38:47.912Z,18.8
2017-06-24T00:39:48.268Z,18.84
2017-06-24T00:40:48.206Z,18.77
2017-06-24T00:41:48.200Z,18.8
2017-06-24T00:42:47.874Z,18.77
2017-06-24T00:43:48.183Z,18.82
2017-06-24T00:44:47.543Z,18.77
2017-06-24T00:45:48.158Z,18.79
2017-06-24T00:46:48.149Z,18.86
2017-06-24T00:47:48.139Z,18.83
2017-06-24T00:48:48.128Z,18.8
2017-06-24T00:49:47.837Z,18.8
2017-06-24T00:50:47.797Z,18.77
2017-06-24T00:51:47.473Z,18.8
2017-06-24T00:52:47.779Z,18.8
2017-06-24T00:53:48.080Z,18.77
2017-06-24T00:54:47.756Z,18.84
2017-06-24T00:55:47.746Z,18.8
2017-06-24T00:56:47.736Z,18.8
2017-06-24T00:57:47.727Z,18.74
2017-06-24T00:58:47.715Z,18.8
2017-06-24T00:59:47.402Z,18.79
2017-06-24T01:00:47.699Z,18.79
2017-06-24T01:01:47.689Z,18.67
2017-06-24T01:02:47.989Z,18.65
2017-06-24T01:03:47.982Z,18.73
2017-06-24T01:04:47.969Z,18.7
2017-06-24T01:05:47.960Z,18.7
2017-06-24T01:06:47.642Z,18.65
2017-06-24T01:07:47.941Z,18.7
2017-06-24T01:08:47.614Z,18.62
2017-06-24T01:09:47.293Z,18.67
2017-06-24T01:10:47.918Z,18.64
2017-06-24T01:11:47.589Z,18.62
2017-06-24T01:12:47.891Z,18.52
2017-06-24T01:13:47.883Z,18.61
2017-06-24T01:14:47.558Z,18.58
2017-06-24T01:15:47.887Z,18.58
2017-06-24T01:16:47.851Z,18.49
2017-06-24T01:17:47.523Z,18.44
2017-06-24T01:18:47.514Z,18.44
2017-06-24T01:19:47.504Z,18.39
2017-06-24T01:20:47.497Z,18.36
2017-06-24T01:21:47.800Z,18.29
2017-06-24T01:22:47.788Z,18.28
2017-06-24T01:23:47.783Z,18.21
2017-06-24T01:24:47.766Z,18.19
2017-06-24T01:25:47.137Z,18.18
2017-06-24T01:26:47.755Z,18.19
2017-06-24T01:27:47.428Z,18.27
2017-06-24T01:28:47.101Z,18.15
2017-06-24T01:29:47.716Z,18.17
2017-06-24T01:30:47.705Z,18.19
2017-06-24T01:31:47.695Z,18.22
2017-06-24T01:32:47.374Z,18.18
2017-06-24T01:33:47.677Z,18.18
2017-06-24T01:34:47.668Z,18.17
2017-06-24T01:35:47.346Z,18.17
2017-06-24T01:36:47.561Z,18.17
2017-06-24T01:37:47.321Z,18.18
2017-06-24T01:38:47.629Z,18.18
2017-06-24T01:39:47.614Z,18.19
2017-06-24T01:40:47.342Z,18.18
2017-06-24T01:41:47.598Z,18.12
2017-06-24T01:42:47.271Z,18.13
2017-06-24T01:43:47.258Z,18.12
2017-06-24T01:44:46.938Z,18.15
2017-06-24T01:45:46.923Z,18.21
2017-06-24T01:46:47.545Z,18.15
2017-06-24T01:47:47.538Z,18.07
2017-06-24T01:48:47.208Z,18.09
2017-06-24T01:49:47.196Z,18.06
2017-06-24T01:50:47.184Z,18.09
2017-06-24T01:51:47.178Z,18.07
2017-06-24T01:52:47.484Z,18.07
2017-06-24T01:53:47.470Z,18.03
2017-06-24T01:54:47.145Z,18
2017-06-24T01:55:47.132Z,17.97
2017-06-24T01:56:47.122Z,18
2017-06-24T01:57:47.110Z,17.91
2017-06-24T01:58:47.414Z,17.95
2017-06-24T01:59:47.094Z,17.87
2017-06-24T02:00:47.400Z,17.79
2017-06-24T02:01:46.781Z,17.79
2017-06-24T02:02:47.059Z,17.78
2017-06-24T02:03:47.366Z,17.71
2017-06-24T02:04:47.043Z,17.69
2017-06-24T02:05:47.026Z,17.74
2017-06-24T02:06:47.331Z,17.7
2017-06-24T02:07:47.016Z,17.67
2017-06-24T02:08:46.994Z,17.64
2017-06-24T02:09:46.989Z,17.55
2017-06-24T02:10:46.982Z,17.64
2017-06-24T02:11:47.280Z,17.59
2017-06-24T02:12:47.265Z,17.5
2017-06-24T02:13:47.258Z,17.53
2017-06-24T02:14:46.933Z,17.55
2017-06-24T02:15:47.237Z,17.51
2017-06-24T02:16:46.600Z,17.46
2017-06-24T02:17:47.217Z,17.44
2017-06-24T02:18:46.580Z,17.48
2017-06-24T02:19:47.191Z,17.46
2017-06-24T02:20:46.871Z,17.46
2017-06-24T02:21:47.189Z,17.48
2017-06-24T02:22:47.166Z,17.4
2017-06-24T02:23:47.156Z,17.35
2017-06-24T02:24:46.834Z,17.36
2017-06-24T02:25:46.817Z,17.36
2017-06-24T02:26:46.807Z,17.38
2017-06-24T02:27:46.802Z,17.38
2017-06-24T02:28:47.104Z,17.33
2017-06-24T02:29:46.774Z,17.41
2017-06-24T02:30:46.760Z,17.35
2017-06-24T02:31:46.752Z,17.33
2017-06-24T02:32:46.750Z,17.33
2017-06-24T02:33:47.057Z,17.25
2017-06-24T02:34:46.716Z,17.25
2017-06-24T02:35:46.417Z,17.23
2017-06-24T02:36:46.705Z,17.18
2017-06-24T02:37:46.705Z,17.18
2017-06-24T02:38:46.361Z,17.23
2017-06-24T02:39:46.674Z,17.18
2017-06-24T02:40:46.988Z,17.23
2017-06-24T02:41:46.661Z,17.14
2017-06-24T02:42:46.952Z,17.18
2017-06-24T02:43:46.618Z,17.11
2017-06-24T02:44:46.611Z,17.1
2017-06-24T02:45:46.602Z,17.11
2017-06-24T02:46:46.584Z,17.11
2017-06-24T02:47:46.897Z,17.11
2017-06-24T02:48:46.881Z,17.08
2017-06-24T02:49:46.557Z,17.07
2017-06-24T02:50:46.860Z,17.1
2017-06-24T02:51:46.843Z,16.99
2017-06-24T02:52:46.830Z,17
2017-06-24T02:53:46.820Z,17.06
2017-06-24T02:54:46.187Z,17.04
2017-06-24T02:55:46.483Z,17.1
2017-06-24T02:56:46.500Z,17.08
2017-06-24T02:57:46.470Z,16.93
2017-06-24T02:58:46.144Z,16.92
2017-06-24T02:59:46.446Z,16.9
2017-06-24T03:00:46.430Z,16.96
2017-06-24T03:01:46.418Z,16.88
2017-06-24T03:02:46.721Z,17
2017-06-24T03:03:46.087Z,16.85
2017-06-24T03:04:46.703Z,16.9
2017-06-24T03:05:46.379Z,16.92
2017-06-24T03:06:46.368Z,16.85
2017-06-24T03:07:46.355Z,16.81
2017-06-24T03:08:46.658Z,16.83
2017-06-24T03:09:46.644Z,16.77
2017-06-24T03:10:46.329Z,16.78
2017-06-24T03:11:46.306Z,16.78
2017-06-24T03:12:46.299Z,16.86
2017-06-24T03:13:46.600Z,16.65
2017-06-24T03:14:46.587Z,16.65
2017-06-24T03:15:45.952Z,16.83
2017-06-24T03:16:46.256Z,16.8
2017-06-24T03:17:46.246Z,16.8
2017-06-24T03:18:46.237Z,16.74
2017-06-24T03:19:46.219Z,16.74
2017-06-24T03:20:46.209Z,16.75
2017-06-24T03:21:46.221Z,16.74
2017-06-24T03:22:46.185Z,16.74
2017-06-24T03:23:46.176Z,16.73
2017-06-24T03:24:46.169Z,16.68
2017-06-24T03:25:46.175Z,16.65
2017-06-24T03:26:46.143Z,16.7
2017-06-24T03:27:46.130Z,16.71
2017-06-24T03:28:46.117Z,16.71
2017-06-24T03:29:46.117Z,16.75
2017-06-24T03:30:46.405Z,16.73
2017-06-24T03:31:46.402Z,16.77
2017-06-24T03:32:46.386Z,16.73
2017-06-24T03:33:46.374Z,16.74
2017-06-24T03:34:45.742Z,16.71
2017-06-24T03:35:46.354Z,16.74
2017-06-24T03:36:46.236Z,16.6
2017-06-24T03:37:46.019Z,16.63
2017-06-24T03:38:46.321Z,16.6
2017-06-24T03:39:46.304Z,16.65
2017-06-24T03:40:45.981Z,16.59
2017-06-24T03:41:45.974Z,16.67
2017-06-24T03:42:45.960Z,16.67
2017-06-24T03:43:45.635Z,16.58
2017-06-24T03:44:46.253Z,16.63
2017-06-24T03:45:46.239Z,16.65
2017-06-24T03:46:46.230Z,16.63
2017-06-24T03:47:45.905Z,16.59
2017-06-24T03:48:46.201Z,16.6
2017-06-24T03:49:45.882Z,16.58
2017-06-24T03:50:45.875Z,16.52
2017-06-24T03:51:45.866Z,16.62
2017-06-24T03:52:46.160Z,16.52
2017-06-24T03:53:45.846Z,16.59
2017-06-24T03:54:45.527Z,16.52
2017-06-24T03:55:45.502Z,16.53
2017-06-24T03:56:45.806Z,16.49
2017-06-24T03:57:45.787Z,16.49
2017-06-24T03:58:46.092Z,16.53
2017-06-24T03:59:45.773Z,16.56
2017-06-24T04:00:45.752Z,16.48
2017-06-24T04:01:45.745Z,16.5
2017-06-24T04:02:46.042Z,16.42
2017-06-24T04:03:45.723Z,16.52
2017-06-24T04:04:45.710Z,16.5
2017-06-24T04:05:46.013Z,16.44
2017-06-24T04:06:46.002Z,16.44
2017-06-24T04:07:45.675Z,16.49
2017-06-24T04:08:45.974Z,16.52
2017-06-24T04:09:45.962Z,16.49
2017-06-24T04:10:45.952Z,16.53
2017-06-24T04:11:45.945Z,16.48
2017-06-24T04:12:45.313Z,16.48
2017-06-24T04:13:45.918Z,16.52
2017-06-24T04:14:45.280Z,16.49
2017-06-24T04:15:45.895Z,16.44
2017-06-24T04:16:45.927Z,16.49
2017-06-24T04:17:45.872Z,16.49
2017-06-24T04:18:45.546Z,16.58
2017-06-24T04:19:45.852Z,16.62
2017-06-24T04:20:45.997Z,16.55
2017-06-24T04:21:45.827Z,16.6
2017-06-24T04:22:45.819Z,16.65
2017-06-24T04:23:45.491Z,16.71
2017-06-24T04:24:45.477Z,16.74
2017-06-24T04:25:45.472Z,16.71
2017-06-24T04:26:45.801Z,16.8
2017-06-24T04:27:45.447Z,16.77
2017-06-24T04:28:45.747Z,16.85
2017-06-24T04:29:45.734Z,16.81
2017-06-24T04:30:45.724Z,16.7
2017-06-24T04:31:45.087Z,16.75
2017-06-24T04:32:45.707Z,16.86
2017-06-24T04:33:45.692Z,16.78
2017-06-24T04:34:45.370Z,16.86
2017-06-24T04:35:45.044Z,16.89
2017-06-24T04:36:45.654Z,16.88
2017-06-24T04:37:45.642Z,16.83
2017-06-24T04:38:45.321Z,16.86
2017-06-24T04:39:45.316Z,16.93
2017-06-24T04:40:45.609Z,16.93
2017-06-24T04:41:44.973Z,16.98
2017-06-24T04:42:45.276Z,17
2017-06-24T04:43:45.578Z,16.9
2017-06-24T04:44:45.255Z,16.96
2017-06-24T04:45:44.938Z,16.95
2017-06-24T04:46:44.923Z,17.06
2017-06-24T04:47:44.906Z,17.04
2017-06-24T04:48:45.208Z,17.06
2017-06-24T04:49:45.201Z,17.08
2017-06-24T04:50:45.500Z,16.99
2017-06-24T04:51:44.865Z,17.08
2017-06-24T04:52:45.167Z,16.99
2017-06-24T04:53:45.155Z,17.07
2017-06-24T04:54:45.461Z,17
2017-06-24T04:55:45.134Z,16.93
2017-06-24T04:56:45.440Z,16.95
2017-06-24T04:57:45.440Z,16.93
2017-06-24T04:58:45.408Z,17.06
2017-06-24T04:59:45.404Z,17.06
2017-06-24T05:00:45.389Z,16.98
2017-06-24T05:01:45.378Z,17
2017-06-24T05:02:45.066Z,17.1
2017-06-24T05:03:45.044Z,17.06
2017-06-24T05:04:45.042Z,17.07
2017-06-24T05:05:45.342Z,17.1
2017-06-24T05:06:45.024Z,17.1
2017-06-24T05:07:45.311Z,17.07
2017-06-24T05:08:44.988Z,17.13
2017-06-24T05:09:44.979Z,17.1
2017-06-24T05:10:44.970Z,17.14
2017-06-24T05:11:45.478Z,17.13
2017-06-24T05:12:44.666Z,17.18
2017-06-24T05:13:45.261Z,17.14
2017-06-24T05:14:45.237Z,17.04
2017-06-24T05:15:45.227Z,17.07
2017-06-24T05:16:44.908Z,16.99
2017-06-24T05:17:44.891Z,17.04
2017-06-24T05:18:44.878Z,17.11
2017-06-24T05:19:44.884Z,17.13
2017-06-24T05:20:45.176Z,17.1
2017-06-24T05:21:45.178Z,17.06
2017-06-24T05:22:44.848Z,17.04
2017-06-24T05:23:45.030Z,17.1
2017-06-24T05:24:45.139Z,17.07
2017-06-24T05:25:45.135Z,17.11
2017-06-24T05:26:44.477Z,17.08
2017-06-24T05:27:44.472Z,17.1
2017-06-24T05:28:44.771Z,17.1
2017-06-24T05:29:44.780Z,17.23
2017-06-24T05:30:44.749Z,17.23
2017-06-24T05:31:45.054Z,17.2
2017-06-24T05:32:44.725Z,17.26
2017-06-24T05:33:44.717Z,17.18
2017-06-24T05:34:44.704Z,17.22
2017-06-24T05:35:45.010Z,17.18
2017-06-24T05:36:45.209Z,17.25
2017-06-24T05:37:44.988Z,17.23
2017-06-24T05:38:44.661Z,17.17
2017-06-24T05:39:45.167Z,17.25
2017-06-24T05:40:44.641Z,17.18
2017-06-24T05:41:44.639Z,17.22
2017-06-24T05:42:44.302Z,17.13
2017-06-24T05:43:44.607Z,17.15
2017-06-24T05:44:44.601Z,17.23
2017-06-24T05:45:44.585Z,17.2
2017-06-24T05:46:44.579Z,17.2
2017-06-24T05:47:44.282Z,17.18
2017-06-24T05:48:44.560Z,17.22
2017-06-24T05:49:44.860Z,17.25
2017-06-24T05:50:44.534Z,17.18
2017-06-24T05:51:44.208Z,17.18
2017-06-24T05:52:44.842Z,17.15
2017-06-24T05:53:44.504Z,17.11
2017-06-24T05:54:44.488Z,17.18
2017-06-24T05:55:44.479Z,17.2
2017-06-24T05:56:44.781Z,17.2
2017-06-24T05:57:44.768Z,17.1
2017-06-24T05:58:44.131Z,17.14
2017-06-24T05:59:44.120Z,17.2
2017-06-24T06:00:44.427Z,17.22
2017-06-24T06:01:44.723Z,17.22
2017-06-24T06:02:44.092Z,17.23
2017-06-24T06:03:44.705Z,17.26
2017-06-24T06:04:44.377Z,17.29
2017-06-24T06:05:44.698Z,17.36
2017-06-24T06:06:44.672Z,17.3
2017-06-24T06:07:44.350Z,17.41
2017-06-24T06:08:44.651Z,17.38
2017-06-24T06:09:44.327Z,17.5
2017-06-24T06:10:44.318Z,17.47
2017-06-24T06:11:44.304Z,17.54
2017-06-24T06:12:44.292Z,17.55
2017-06-24T06:13:44.283Z,17.53
2017-06-24T06:14:44.611Z,17.55
2017-06-24T06:15:44.265Z,17.53
2017-06-24T06:16:44.255Z,17.55
2017-06-24T06:17:44.246Z,17.51
2017-06-24T06:18:43.924Z,17.59
2017-06-24T06:19:44.541Z,17.67
2017-06-24T06:20:44.724Z,17.64
2017-06-24T06:21:43.892Z,17.71
2017-06-24T06:22:44.196Z,17.66
2017-06-24T06:23:43.872Z,17.64
2017-06-24T06:24:44.170Z,17.69
2017-06-24T06:25:43.851Z,17.66
2017-06-24T06:26:43.841Z,17.66
2017-06-24T06:27:43.825Z,17.62
2017-06-24T06:28:43.814Z,17.64
2017-06-24T06:29:43.810Z,17.66
2017-06-24T06:30:43.796Z,17.67
2017-06-24T06:31:44.095Z,17.67
2017-06-24T06:32:44.396Z,17.69
2017-06-24T06:33:44.076Z,17.53
2017-06-24T06:34:44.071Z,17.59
2017-06-24T06:35:44.369Z,17.69
2017-06-24T06:36:44.046Z,17.73
2017-06-24T06:37:44.032Z,17.79
2017-06-24T06:38:44.335Z,17.78
2017-06-24T06:39:44.329Z,17.76
2017-06-24T06:40:44.335Z,17.81
2017-06-24T06:41:44.001Z,17.78
2017-06-24T06:42:44.304Z,17.85
2017-06-24T06:43:44.287Z,17.85
2017-06-24T06:44:44.283Z,17.82
2017-06-24T06:45:43.960Z,17.82
2017-06-24T06:46:43.948Z,17.82
2017-06-24T06:47:43.623Z,17.82
2017-06-24T06:48:43.609Z,17.85
2017-06-24T06:49:44.226Z,17.82
2017-06-24T06:50:44.215Z,17.88
2017-06-24T06:51:44.207Z,17.92
2017-06-24T06:52:43.880Z,18.02
2017-06-24T06:53:44.184Z,17.99
2017-06-24T06:54:44.177Z,18.02
2017-06-24T06:55:43.848Z,17.94
2017-06-24T06:56:43.546Z,18.04
2017-06-24T06:57:43.832Z,18.12
2017-06-24T06:58:44.135Z,18.19
2017-06-24T06:59:44.120Z,18.12
2017-06-24T07:00:44.113Z,18.09
2017-06-24T07:01:44.107Z,18.12
2017-06-24T07:02:43.783Z,18.17
2017-06-24T07:03:44.089Z,18.21
2017-06-24T07:04:44.070Z,18.25
2017-06-24T07:05:44.072Z,18.28
2017-06-24T07:06:44.053Z,18.42
2017-06-24T07:07:43.745Z,18.46
2017-06-24T07:08:43.721Z,18.52
2017-06-24T07:09:43.719Z,18.39
2017-06-24T07:10:43.711Z,18.46
2017-06-24T07:11:43.393Z,18.47
2017-06-24T07:12:44.009Z,18.49
2017-06-24T07:13:43.994Z,18.57
2017-06-24T07:14:43.673Z,18.58
2017-06-24T07:15:43.351Z,18.57
2017-06-24T07:16:43.648Z,18.57
2017-06-24T07:17:43.952Z,18.55
2017-06-24T07:18:43.946Z,18.67
2017-06-24T07:19:43.625Z,18.67
2017-06-24T07:20:43.301Z,18.79
2017-06-24T07:21:43.603Z,18.7
2017-06-24T07:22:43.594Z,18.79
2017-06-24T07:23:43.895Z,19.01
2017-06-24T07:24:43.593Z,18.94
2017-06-24T07:25:43.885Z,19.1
2017-06-24T07:26:43.556Z,19.79
2017-06-24T07:27:43.551Z,20.42
2017-06-24T07:28:43.854Z,20.54
2017-06-24T07:29:43.848Z,21.29
2017-06-24T07:30:43.837Z,21.9
2017-06-24T07:31:43.824Z,22.39
2017-06-24T07:32:43.501Z,22.97
2017-06-24T07:33:43.811Z,23.4
2017-06-24T07:34:43.804Z,23.75
2017-06-24T07:35:43.485Z,24.12
2017-06-24T07:36:43.364Z,24.12
2017-06-24T07:37:43.789Z,24.34
2017-06-24T07:38:43.467Z,24.83
2017-06-24T07:39:43.462Z,24.92
2017-06-24T07:40:43.146Z,25.25
2017-06-24T07:41:43.456Z,25.31
2017-06-24T07:42:43.457Z,24.53
2017-06-24T07:43:43.465Z,24.54
2017-06-24T07:44:43.489Z,24.63
2017-06-24T07:45:43.751Z,24.37
2017-06-24T07:46:43.751Z,24.56
2017-06-24T07:47:43.116Z,23.86
2017-06-24T07:48:43.111Z,24.16
2017-06-24T07:49:43.414Z,24.49
2017-06-24T07:50:43.725Z,24.54
2017-06-24T07:51:43.741Z,24.49
2017-06-24T07:52:43.408Z,24.19
2017-06-24T07:53:43.723Z,24.04
2017-06-24T07:54:43.714Z,23.45
2017-06-24T07:55:43.737Z,23.4
2017-06-24T07:56:43.093Z,23.94
2017-06-24T07:57:43.719Z,24.5
2017-06-24T07:58:43.695Z,24.69
2017-06-24T07:59:43.381Z,25.06
2017-06-24T08:00:43.377Z,25.35
2017-06-24T08:01:43.395Z,25.25
2017-06-24T08:02:43.368Z,25.8
2017-06-24T08:03:43.676Z,25.86
2017-06-24T08:04:43.364Z,24.77
2017-06-24T08:05:43.677Z,23.34
2017-06-24T08:06:43.670Z,22.92
2017-06-24T08:07:43.353Z,22.64
2017-06-24T08:08:43.390Z,22.25
2017-06-24T08:09:43.374Z,22.1
2017-06-24T08:10:43.659Z,21.98
2017-06-24T08:11:43.338Z,21.94
2017-06-24T08:12:43.647Z,21.98
2017-06-24T08:13:43.335Z,22.19
2017-06-24T08:14:43.643Z,21.95
2017-06-24T08:15:43.636Z,21.99
2017-06-24T08:16:43.318Z,22.19
2017-06-24T08:17:43.649Z,22.94
2017-06-24T08:18:43.310Z,23.19
2017-06-24T08:19:43.310Z,23.27
2017-06-24T08:20:42.989Z,22.92
2017-06-24T08:21:42.981Z,22.65
2017-06-24T08:22:43.302Z,22.38
2017-06-24T08:23:43.612Z,22.06
2017-06-24T08:24:43.285Z,22.02
2017-06-24T08:25:43.279Z,21.76
2017-06-24T08:26:43.592Z,21.6
2017-06-24T08:27:43.587Z,21.53
2017-06-24T08:28:42.956Z,21.42
2017-06-24T08:29:42.951Z,21.34
2017-06-24T08:30:43.575Z,21.21
2017-06-24T08:31:43.564Z,21.17
2017-06-24T08:32:42.934Z,21.08
2017-06-24T08:33:43.234Z,21.01
2017-06-24T08:34:43.541Z,20.96
2017-06-24T08:35:42.914Z,20.9
2017-06-24T08:36:43.538Z,20.86
2017-06-24T08:37:43.544Z,20.81
2017-06-24T08:38:43.220Z,20.65
2017-06-24T08:39:43.214Z,20.51
2017-06-24T08:40:42.953Z,20.53
2017-06-24T08:41:43.511Z,20.46
2017-06-24T08:42:43.187Z,20.46
2017-06-24T08:43:43.493Z,20.49
2017-06-24T08:44:43.488Z,20.51
2017-06-24T08:45:43.482Z,20.47
2017-06-24T08:46:43.160Z,20.41
2017-06-24T08:47:43.182Z,20.49
2017-06-24T08:48:43.460Z,20.47
2017-06-24T08:49:42.833Z,20.58
2017-06-24T08:50:43.440Z,20.51
2017-06-24T08:51:43.128Z,20.56
2017-06-24T08:52:43.117Z,20.47
2017-06-24T08:53:43.110Z,20.46
2017-06-24T08:54:43.131Z,20.51
2017-06-24T08:55:42.784Z,20.47
2017-06-24T08:56:43.427Z,20.42
2017-06-24T08:57:43.402Z,20.59
2017-06-24T08:58:43.076Z,20.64
2017-06-24T08:59:43.071Z,20.74
2017-06-24T09:00:43.382Z,20.86
2017-06-24T09:01:43.054Z,21.04
2017-06-24T09:02:43.356Z,21.21
2017-06-24T09:03:43.347Z,21.26
2017-06-24T09:04:43.356Z,21.08
2017-06-24T09:05:43.346Z,21.11
2017-06-24T09:06:43.331Z,21.08
2017-06-24T09:07:43.018Z,21.13
2017-06-24T09:08:43.005Z,21.02
2017-06-24T09:09:42.997Z,20.9
2017-06-24T09:10:42.988Z,20.93
2017-06-24T09:11:43.291Z,20.84
2017-06-24T09:12:43.285Z,20.8
2017-06-24T09:13:43.278Z,20.66
2017-06-24T09:14:42.653Z,20.66
2017-06-24T09:15:43.263Z,20.58
2017-06-24T09:16:43.258Z,20.58
2017-06-24T09:17:42.947Z,20.42
2017-06-24T09:18:43.242Z,20.42
2017-06-24T09:19:43.236Z,20.39
2017-06-24T09:20:43.228Z,20.39
2017-06-24T09:21:42.908Z,20.41
2017-06-24T09:22:43.218Z,20.49
2017-06-24T09:23:43.207Z,20.43
2017-06-24T09:24:42.885Z,20.49
2017-06-24T09:25:43.193Z,20.46
2017-06-24T09:26:42.871Z,20.46
2017-06-24T09:27:43.187Z,20.41
2017-06-24T09:28:43.166Z,20.49
2017-06-24T09:29:43.158Z,20.34
2017-06-24T09:30:43.153Z,20.39
2017-06-24T09:31:43.176Z,20.46
2017-06-24T09:32:43.137Z,20.38
2017-06-24T09:33:42.814Z,20.56
2017-06-24T09:34:43.116Z,20.47
2017-06-24T09:35:42.800Z,20.51
2017-06-24T09:36:42.991Z,20.64
2017-06-24T09:37:43.094Z,20.54
2017-06-24T09:38:42.779Z,20.5
2017-06-24T09:39:42.790Z,20.51
2017-06-24T09:40:42.449Z,20.61
2017-06-24T09:41:43.069Z,20.58
2017-06-24T09:42:43.061Z,20.62
2017-06-24T09:43:43.064Z,20.69
2017-06-24T09:44:43.038Z,20.62
2017-06-24T09:45:42.721Z,20.69
2017-06-24T09:46:42.709Z,20.65
2017-06-24T09:47:43.069Z,20.58
2017-06-24T09:48:42.383Z,20.58
2017-06-24T09:49:42.689Z,20.58
2017-06-24T09:50:42.677Z,20.59
2017-06-24T09:51:42.688Z,20.59
2017-06-24T09:52:42.663Z,20.72
2017-06-24T09:53:42.967Z,20.64
2017-06-24T09:54:42.645Z,20.72
2017-06-24T09:55:42.955Z,20.68
2017-06-24T09:56:42.953Z,20.69
2017-06-24T09:57:42.629Z,20.69
2017-06-24T09:58:42.300Z,20.72
2017-06-24T09:59:42.920Z,20.66
2017-06-24T10:00:42.601Z,20.71
2017-06-24T10:01:42.901Z,20.79
2017-06-24T10:02:42.274Z,20.87
2017-06-24T10:03:42.895Z,20.77
2017-06-24T10:04:42.253Z,20.69
2017-06-24T10:05:42.872Z,20.69
2017-06-24T10:06:42.866Z,20.65
2017-06-24T10:07:42.538Z,20.69
2017-06-24T10:08:42.535Z,20.79
2017-06-24T10:09:42.848Z,20.68
2017-06-24T10:10:42.524Z,20.83
2017-06-24T10:11:42.821Z,20.84
2017-06-24T10:12:42.501Z,20.91
2017-06-24T10:13:42.810Z,21.01
2017-06-24T10:14:42.804Z,21.17
2017-06-24T10:15:42.165Z,21.27
2017-06-24T10:16:42.792Z,21.09
2017-06-24T10:17:42.463Z,21.16
2017-06-24T10:18:42.453Z,21.21
2017-06-24T10:19:42.455Z,21.21
2017-06-24T10:20:42.809Z,21.29
2017-06-24T10:21:42.434Z,21.34
2017-06-24T10:22:42.428Z,21.34
2017-06-24T10:23:42.432Z,21.23
2017-06-24T10:24:42.411Z,21.2
2017-06-24T10:25:42.719Z,21.16
2017-06-24T10:26:42.738Z,21.01
2017-06-24T10:27:42.399Z,21.04
2017-06-24T10:28:42.722Z,20.98
2017-06-24T10:29:42.395Z,20.98
2017-06-24T10:30:42.062Z,20.84
2017-06-24T10:31:42.048Z,20.83
2017-06-24T10:32:42.036Z,20.79
2017-06-24T10:33:42.658Z,20.8
2017-06-24T10:34:42.338Z,20.74
2017-06-24T10:35:42.656Z,20.77
2017-06-24T10:36:42.636Z,20.65
2017-06-24T10:37:42.317Z,20.68
2017-06-24T10:38:42.313Z,20.68
2017-06-24T10:39:42.614Z,20.62
2017-06-24T10:40:42.289Z,20.71
2017-06-24T10:41:42.285Z,20.81
2017-06-24T10:42:42.590Z,20.79
2017-06-24T10:43:42.277Z,20.93
2017-06-24T10:44:41.952Z,21.09
2017-06-24T10:45:42.253Z,21.11
2017-06-24T10:46:42.246Z,21.09
2017-06-24T10:47:41.931Z,20.95
2017-06-24T10:48:42.544Z,20.81
2017-06-24T10:49:42.228Z,20.79
2017-06-24T10:50:42.214Z,20.77
2017-06-24T10:51:42.207Z,20.68
2017-06-24T10:52:42.515Z,20.72
2017-06-24T10:53:42.196Z,20.66
2017-06-24T10:54:42.237Z,20.74
2017-06-24T10:55:42.503Z,20.58
2017-06-24T10:56:42.491Z,20.56
2017-06-24T10:57:42.164Z,20.62
2017-06-24T10:58:41.841Z,20.54
2017-06-24T10:59:42.158Z,20.46
2017-06-24T11:00:42.150Z,20.41
2017-06-24T11:01:42.133Z,20.28
2017-06-24T11:02:42.441Z,20.21
2017-06-24T11:03:41.805Z,20.23
2017-06-24T11:04:41.796Z,20.1
2017-06-24T11:05:42.103Z,20.08
2017-06-24T11:06:42.408Z,19.98
2017-06-24T11:07:41.775Z,20
2017-06-24T11:08:42.084Z,19.98
2017-06-24T11:09:42.068Z,19.94
2017-06-24T11:10:42.390Z,20
2017-06-24T11:11:41.749Z,19.98
2017-06-24T11:12:42.047Z,19.98
2017-06-24T11:13:42.357Z,20.05
2017-06-24T11:14:42.030Z,20.1
2017-06-24T11:15:42.020Z,20.15
2017-06-24T11:16:42.327Z,20.16
2017-06-24T11:17:42.004Z,20.27
2017-06-24T11:18:42.312Z,20.21
2017-06-24T11:19:42.309Z,20.31
2017-06-24T11:20:42.300Z,20.25
2017-06-24T11:21:42.284Z,20.35
2017-06-24T11:22:41.962Z,20.42
2017-06-24T11:23:42.270Z,20.43
2017-06-24T11:24:42.262Z,20.34
2017-06-24T11:25:42.255Z,20.35
2017-06-24T11:26:42.296Z,20.42
2017-06-24T11:27:42.237Z,20.33
2017-06-24T11:28:41.916Z,20.39
2017-06-24T11:29:41.907Z,20.39
2017-06-24T11:30:42.214Z,20.49
2017-06-24T11:31:42.206Z,20.38
2017-06-24T11:32:42.202Z,20.38
2017-06-24T11:33:41.874Z,20.41
2017-06-24T11:34:42.187Z,20.46
2017-06-24T11:35:41.861Z,20.34
2017-06-24T11:36:41.559Z,20.38
2017-06-24T11:37:41.851Z,20.35
2017-06-24T11:38:41.834Z,20.27
2017-06-24T11:39:41.828Z,20.25
2017-06-24T11:40:42.132Z,20.3
2017-06-24T11:41:42.170Z,20.28
2017-06-24T11:42:41.487Z,20.39
2017-06-24T11:43:41.792Z,20.27
2017-06-24T11:44:42.101Z,20.35
2017-06-24T11:45:41.779Z,20.34
2017-06-24T11:46:41.768Z,20.3
2017-06-24T11:47:42.075Z,20.39
2017-06-24T11:48:41.753Z,20.39
2017-06-24T11:49:41.437Z,20.39
2017-06-24T11:50:42.085Z,20.25
2017-06-24T11:51:42.041Z,20.27
2017-06-24T11:52:41.406Z,20.25
2017-06-24T11:53:41.712Z,20.39
2017-06-24T11:54:41.704Z,20.39
2017-06-24T11:55:41.706Z,20.42
2017-06-24T11:56:41.687Z,20.41
2017-06-24T11:57:41.369Z,20.39
2017-06-24T11:58:41.985Z,20.42
2017-06-24T11:59:42.001Z,20.38
2017-06-24T12:00:41.375Z,20.28
2017-06-24T12:01:41.964Z,20.3
2017-06-24T12:02:41.952Z,20.34
2017-06-24T12:03:41.686Z,20.28
2017-06-24T12:04:41.310Z,20.33
2017-06-24T12:05:41.618Z,20.35
2017-06-24T12:06:41.929Z,20.28
2017-06-24T12:07:41.603Z,20.24
2017-06-24T12:08:41.902Z,20.2
2017-06-24T12:09:41.596Z,20.23
2017-06-24T12:10:41.620Z,20.2
2017-06-24T12:11:41.574Z,20.23
2017-06-24T12:12:41.559Z,20.33
2017-06-24T12:13:41.880Z,20.3
2017-06-24T12:14:41.852Z,20.34
2017-06-24T12:15:41.227Z,20.27
2017-06-24T12:16:41.529Z,20.23
2017-06-24T12:17:41.843Z,20.21
2017-06-24T12:18:41.827Z,20.27
2017-06-24T12:19:41.822Z,20.28
2017-06-24T12:20:41.542Z,20.31
2017-06-24T12:21:41.181Z,20.39
2017-06-24T12:22:41.496Z,20.41
2017-06-24T12:23:41.470Z,20.39
2017-06-24T12:24:41.458Z,20.41
2017-06-24T12:25:41.775Z,20.46
2017-06-24T12:26:41.137Z,20.39
2017-06-24T12:27:41.749Z,20.42
2017-06-24T12:28:41.737Z,20.39
2017-06-24T12:29:41.115Z,20.28
2017-06-24T12:30:41.415Z,20.31
2017-06-24T12:31:41.716Z,20.39
2017-06-24T12:32:41.709Z,20.39
2017-06-24T12:33:41.703Z,20.38
2017-06-24T12:34:41.380Z,20.47
2017-06-24T12:35:41.683Z,20.43
2017-06-24T12:36:41.365Z,20.39
2017-06-24T12:37:41.373Z,20.47
2017-06-24T12:38:41.348Z,20.5
2017-06-24T12:39:41.027Z,20.47
2017-06-24T12:40:41.334Z,20.46
2017-06-24T12:41:41.655Z,20.53
2017-06-24T12:42:41.326Z,20.62
2017-06-24T12:43:41.305Z,20.59
2017-06-24T12:44:41.619Z,20.53
2017-06-24T12:45:41.292Z,20.66
2017-06-24T12:46:40.979Z,20.58
2017-06-24T12:47:41.275Z,20.69
2017-06-24T12:48:40.956Z,20.72
2017-06-24T12:49:41.275Z,20.81
2017-06-24T12:50:40.936Z,20.76
2017-06-24T12:51:41.242Z,20.74
2017-06-24T12:52:41.550Z,20.69
2017-06-24T12:53:41.229Z,20.69
2017-06-24T12:54:41.221Z,20.69
2017-06-24T12:55:41.227Z,20.68
2017-06-24T12:56:41.515Z,20.72